Flight Track Log - Related Links

Times and Time Zones

All times are in EDT time to prevent confusion due to time zone crossing. See the SKW6278 flight status page for this flight to view local times or setup timezone preferences in your user account.

Time Position Orientation Groundspeed Altitude Reporting Facility
EDT Latitude Longitude Course Direction KTS MPH feet Rate Location/Type
Sat 07:29:07 PM 51.1167 -114.0333 348° North 160 184 5,200  Level Edmonton Center
Sat 07:30:07 PM 51.1667 -114.0500 348° North 190 219 8,000 2,833 Climbing Edmonton Center
Sat 07:32:07 PM 51.0833 -114.1667 221° Southwest 250 288 13,700 2,567 Climbing Edmonton Center
Sat 07:33:07 PM 51.0000 -114.2000 194° South 280 322 15,700 2,050 Climbing Edmonton Center
Sat 07:34:07 PM 50.9333 -114.2500 205° Southwest 300 345 17,800 2,000 Climbing Edmonton Center
Sat 07:35:07 PM 50.8500 -114.2833 194° South 310 357 19,700 1,650 Climbing Edmonton Center
Sat 07:36:07 PM 50.7500 -114.3167 192° South 330 380 21,100 1,200 Climbing Edmonton Center
Sat 07:37:07 PM 50.6667 -114.3500 194° South 370 426 22,100 1,050 Climbing Edmonton Center
Sat 07:38:07 PM 50.5500 -114.3833 190° South 390 449 23,200 1,200 Climbing Edmonton Center
Sat 07:39:07 PM 50.4333 -114.4333 195° South 400 460 24,500 1,300 Climbing Edmonton Center
Sat 07:40:07 PM 50.3333 -114.4667 192° South 410 472 25,800 1,050 Climbing Edmonton Center
Sat 07:41:07 PM 50.2167 -114.5167 195° South 420 483 26,600 650 Climbing Edmonton Center
Sat 07:42:07 PM 50.1000 -114.5500 190° South 430 495 27,100 600 Climbing Edmonton Center
Sat 07:43:07 PM 49.9667 -114.6000 194° South 450 518 27,800 850 Climbing Edmonton Center
Sat 07:44:07 PM 49.8667 -114.6500 198° South 450 518 28,800 942 Climbing Edmonton Center
Sat 07:45:59 PM 49.6697 -114.6956 189° South 456 525 30,500 977 Climbing Seattle Center
Sat 07:46:59 PM 49.5461 -114.7392 193° South 456 525 31,600 992 Climbing Seattle Center
Sat 07:48:00 PM 49.4231 -114.7864 194° South 457 526 32,500 984 Climbing Seattle Center
Sat 07:49:01 PM 49.3003 -114.8272 192° South 455 524 33,600 709 Climbing Seattle Center
Sat 07:50:07 PM 49.1167 -114.9000 195° South 460 529 34,000 190 Climbing Edmonton Center
Sat 07:51:07 PM 48.9833 -114.9500 194° South 470 541 34,000  Level Edmonton Center
Sat 07:52:07 PM 48.8500 -115.0000 194° South 480 552 34,000  Level Edmonton Center
Sat 07:53:07 PM 48.7167 -115.0833 202° Southwest 480 552 34,000  Level Edmonton Center
Sat 07:54:07 PM 48.6000 -115.1333 196° South 480 552 34,000  Level Edmonton Center
Sat 07:55:07 PM 48.4667 -115.2000 198° South 480 552 34,000  Level Edmonton Center
Sat 07:56:07 PM 48.3500 -115.2500 196° South 480 552 34,000  Level Edmonton Center
Sat 07:57:07 PM 48.2167 -115.3333 203° Southwest 480 552 34,000 -50 Level Edmonton Center
Sat 07:58:08 PM 48.1381 -115.3511 189° South 477 549 33,900  Descending Seattle Center
Sat 07:59:08 PM 48.0072 -115.4142 198° South 483 556 34,000 50 Climbing Seattle Center
Sat 08:00:09 PM 47.8792 -115.4739 197° South 482 555 34,000  Level Seattle Center
Sat 08:01:10 PM 47.7514 -115.5342 198° South 481 554 34,000  Level Seattle Center
Sat 08:02:11 PM 47.6294 -115.5914 198° South 480 552 34,000  Level Seattle Center
Sat 08:03:11 PM 47.5014 -115.6506 197° South 482 555 34,000  Level Seattle Center
Sat 08:04:12 PM 47.3469 -115.7228 198° South 487 560 34,000 -49 Level Seattle Center
Sat 08:05:13 PM 47.2350 -115.7753 198° South 491 565 33,900  Descending Seattle Center
Sat 08:06:14 PM 47.1042 -115.8333 197° South 491 565 34,000 50 Climbing Seattle Center
Sat 08:07:14 PM 46.9731 -115.8931 197° South 491 565 34,000  Level Seattle Center
Sat 08:08:15 PM 46.8417 -115.9536 197° South 494 568 34,000 -49 Level Seattle Center
Sat 08:09:16 PM 46.7100 -116.0125 197° South 495 570 33,900  Descending Seattle Center
Sat 08:10:17 PM 46.5517 -116.0831 197° South 494 568 34,000  Climbing Seattle Center
Sat 08:11:17 PM 46.4206 -116.1422 197° South 493 567 33,900  Descending Seattle Center
Sat 08:12:18 PM 46.2914 -116.1992 197° South 487 560 34,000 49 Climbing Seattle Center
Sat 08:13:19 PM 46.1600 -116.2569 197° South 491 565 34,000 -50 Level Seattle Center
Sat 08:14:19 PM 46.0292 -116.3133 197° South 492 566 33,900  Descending Seattle Center
Sat 08:15:20 PM 45.8983 -116.3731 198° South 494 568 34,000 49 Climbing Seattle Center
Sat 08:16:21 PM 45.7667 -116.4289 196° South 494 568 34,000  Level Seattle Center
Sat 08:17:21 PM 45.6275 -116.4897 197° South 493 567 34,000  Level Seattle Center
Sat 08:18:22 PM 45.5017 -116.5439 197° South 494 568 34,000  Level Seattle Center
Sat 08:19:22 PM 45.3753 -116.5994 197° South 496 571 34,000  Level Seattle Center
Sat 08:20:23 PM 45.2286 -116.6619 197° South 493 567 34,000  Level Seattle Center
Sat 08:21:23 PM 45.1017 -116.7147 196° South 496 571 34,000  Level Seattle Center
Sat 08:22:24 PM 44.9756 -116.7678 197° South 496 571 34,000  Level Seattle Center
Sat 08:23:25 PM 44.8281 -116.8303 197° South 497 572 34,000  Level Seattle Center
Sat 08:23:40 PM 44.8075 -116.8392 197° South 497 572 34,000  Level Salt Lake Center
Sat 08:24:41 PM 44.6594 -116.9000 196° South 499 574 34,000  Level Salt Lake Center
Sat 08:25:42 PM 44.5325 -116.9533 197° South 500 575 34,000  Level Salt Lake Center
Sat 08:26:43 PM 44.3842 -117.0164 197° South 501 577 34,000  Level Salt Lake Center
Sat 08:27:44 PM 44.2600 -117.0792 200° South 499 574 34,000  Level Salt Lake Center
Sat 08:28:45 PM 44.1356 -117.1406 199° South 497 572 34,000  Level Salt Lake Center
Sat 08:29:46 PM 43.9883 -117.2097 199° South 497 572 34,000  Level Salt Lake Center
Sat 08:30:47 PM 43.8642 -117.2694 199° South 494 568 34,000  Level Salt Lake Center
Sat 08:31:49 PM 43.7400 -117.3281 199° South 494 568 34,000  Level Salt Lake Center
Sat 08:32:50 PM 43.5956 -117.3972 199° South 492 566 34,000  Level Salt Lake Center
Sat 08:33:51 PM 43.4700 -117.4561 199° South 496 571 34,000 148 Level Salt Lake Center
Sat 08:34:52 PM 43.3247 -117.5269 200° South 496 571 34,300 492 Climbing Salt Lake Center
Sat 08:35:53 PM 43.2211 -117.6222 214° Southwest 465 535 35,000 639 Climbing Salt Lake Center
Sat 08:36:54 PM 43.1278 -117.7297 220° Southwest 457 526 35,600 492 Climbing Salt Lake Center
Sat 08:37:55 PM 43.0186 -117.8536 220° Southwest 456 525 36,000 197 Climbing Salt Lake Center
Sat 08:38:56 PM 42.9219 -117.9617 219° Southwest 468 539 36,000  Level Salt Lake Center
Sat 08:39:57 PM 42.8269 -118.0681 219° Southwest 463 533 36,000  Level Salt Lake Center
Sat 08:40:58 PM 42.7161 -118.1928 220° Southwest 463 533 36,000  Level Salt Lake Center
Sat 08:41:59 PM 42.6308 -118.2881 219° Southwest 463 533 36,000  Level Salt Lake Center
Sat 08:43:00 PM 42.5306 -118.3964 219° Southwest 461 531 36,000  Level Salt Lake Center
Sat 08:44:01 PM 42.4236 -118.5147 219° Southwest 468 539 36,000  Level Salt Lake Center
Sat 08:45:02 PM 42.3103 -118.6383 219° Southwest 469 540 36,000  Level Salt Lake Center
Sat 08:46:03 PM 42.2153 -118.7419 219° Southwest 461 531 36,000  Level Salt Lake Center
Sat 08:47:04 PM 42.1003 -118.8636 218° Southwest 469 540 36,000  Level Salt Lake Center
Sat 08:48:05 PM 42.0036 -118.9694 219° Southwest 468 539 36,000  Level Salt Lake Center
Sat 08:49:06 PM 41.9053 -119.0733 218° Southwest 468 539 36,000  Level Salt Lake Center
Sat 08:49:40 PM 41.8419 -119.1425 219° Southwest 470 541 36,000  Level Seattle Center
Sat 08:50:41 PM 41.7439 -119.2467 218° Southwest 469 540 36,000  Level Seattle Center
Sat 08:51:41 PM 41.6375 -119.3600 219° Southwest 466 536 36,000  Level Seattle Center
Sat 08:52:42 PM 41.5336 -119.4675 218° Southwest 469 540 36,000  Level Seattle Center
Sat 08:53:42 PM 41.4222 -119.5856 218° Southwest 470 541 36,000  Level Seattle Center
Sat 08:54:24 PM 41.3694 -119.6386 217° Southwest 467 537 36,000  Level Oakland Center
Sat 08:54:43 PM 41.3292 -119.6825 219° Southwest 467 537 36,000  Level Seattle Center
Sat 08:55:44 PM 41.2303 -119.7869 218° Southwest 457 526 36,000  Level Seattle Center
Sat 08:56:44 PM 41.1242 -119.8953 218° Southwest 472 543 36,000  Level Seattle Center
Sat 08:57:45 PM 41.0192 -120.0033 218° Southwest 476 548 36,000  Level Seattle Center
Sat 08:58:45 PM 40.9153 -120.1103 218° Southwest 474 545 36,000  Level Seattle Center
Sat 08:59:46 PM 40.8125 -120.2161 218° Southwest 470 541 36,000  Level Seattle Center
Sat 09:00:46 PM 40.7081 -120.3214 217° Southwest 470 541 36,000  Level Seattle Center
Sat 09:01:31 PM 40.6272 -120.4011 217° Southwest 462 532 36,000  Level Oakland Center
Sat 09:01:47 PM 40.6067 -120.4239 220° Southwest 464 534 36,000  Level Seattle Center
Sat 09:02:47 PM 40.5042 -120.5272 217° Southwest 462 532 36,000  Level Seattle Center
Sat 09:03:48 PM 40.4008 -120.6303 217° Southwest 465 535 36,000  Level Seattle Center
Sat 09:04:34 PM 40.3072 -120.7242 217° Southwest 467 537 36,000  Level Oakland Center
Sat 09:05:35 PM 40.2036 -120.8269 217° Southwest 467 537 36,000  Level Oakland Center
Sat 09:06:36 PM 40.1011 -120.9306 218° Southwest 465 535 36,000  Level Oakland Center
Sat 09:07:37 PM 39.9981 -121.0303 217° Southwest 465 535 36,000  Level Oakland Center
Sat 09:08:37 PM 39.8944 -121.1325 217° Southwest 465 535 36,000  Level Oakland Center
Sat 09:09:38 PM 39.7892 -121.2383 218° Southwest 468 539 36,000  Level Oakland Center
Sat 09:10:39 PM 39.6844 -121.3389 216° Southwest 466 536 36,000  Level Oakland Center
Sat 09:11:40 PM 39.5803 -121.4414 217° Southwest 467 537 36,000  Level Oakland Center
Sat 09:12:41 PM 39.4814 -121.5392 217° Southwest 463 533 36,000  Level Oakland Center
Sat 09:13:42 PM 39.3772 -121.6400 217° Southwest 467 537 36,000  Level Oakland Center
Sat 09:14:43 PM 39.2728 -121.7414 217° Southwest 471 542 36,000  Level Oakland Center
Sat 09:15:44 PM 39.1689 -121.8414 217° Southwest 471 542 36,000  Level Oakland Center
Sat 09:16:45 PM 39.0653 -121.9408 217° Southwest 468 539 36,000  Level Oakland Center
Sat 09:17:46 PM 38.9411 -122.0586 216° Southwest 465 535 36,000  Level Oakland Center
Sat 09:18:47 PM 38.8386 -122.1569 217° Southwest 463 533 36,000 -1,377 Level Oakland Center
Sat 09:19:48 PM 38.7308 -122.2469 213° Southwest 470 541 33,200 -2,459 Descending Oakland Center
Sat 09:20:49 PM 38.6083 -122.3097 202° Southwest 476 548 31,000 -1,131 Descending Oakland Center
Sat 09:21:50 PM 38.4822 -122.3742 202° Southwest 483 556 30,900 -1,672 Descending Oakland Center
Sat 09:22:51 PM 38.3586 -122.4367 202° Southwest 479 551 27,600 -3,787 Descending Oakland Center
Sat 09:23:52 PM 38.2386 -122.4992 202° Southwest 467 537 23,200 -4,328 Descending Oakland Center
Sat 09:24:53 PM 38.1217 -122.5592 202° Southwest 452 520 18,800 -4,082 Descending Oakland Center
Sat 09:25:54 PM 38.0133 -122.6158 202° Southwest 433 498 14,900 -3,787 Descending Oakland Center
Sat 09:26:55 PM 37.8864 -122.6500 192° South 427 491 11,100 -1,902 Descending Oakland Center
Sat 09:27:57 PM 37.8000 -122.5667 143° Southeast 374 430 11,000 -47 Descending Northern Cal TRACON
Sat 09:29:02 PM 37.7167 -122.4833 142° Southeast 328 377 11,000  Level Northern Cal TRACON
Sat 09:29:57 PM 37.6667 -122.4167 133° Southeast 291 335 11,000 -51 Level Northern Cal TRACON
Sat 09:30:59 PM 37.6086 -122.3636 144° Southeast 273 314 10,900 -1,122 Descending Oakland Center
Sat 09:32:00 PM 37.5481 -122.3225 152° Southeast 251 289 8,700 -2,410 Descending Oakland Center
Sat 09:33:01 PM 37.4858 -122.2839 154° Southeast 249 287 6,000 -1,820 Descending Oakland Center
Sat 09:34:02 PM 37.4350 -122.2167 134° Southeast 234 269 5,000 -934 Descending Oakland Center
Sat 09:35:03 PM 37.4381 -122.1536 86° East 222 255 4,100 -492 Descending Oakland Center
Sat 09:36:04 PM 37.4914 -122.1400 11° North 214 246 4,000 -639 Descending Oakland Center
Sat 09:37:05 PM 37.5383 -122.1897 320° Northwest 220 253 2,800 -984 Descending Oakland Center
Sat 09:38:06 PM 37.5681 -122.2517 301° West 212 244 2,000 -787 Descending Oakland Center

Login

Don't have an account? Register now (free) for customized features, flight alerts, and more!